« Back
NWS Peachtree City, Ga » Text Product » CSG Terminal Aerodrome Forecast


Printer-friendly Version
Current Version              Previous Versions:   1  2  3  4  5  6  7  8  9  

Terminal Aerodrome Forecast

994
FTUS42 KFFC 271137
TAFCSG
TAF
KCSG 271137Z 2712/2812 02005KT P6SM SKC
     FM271300 07008KT P6SM SCT035
     FM271700 08010KT P6SM BKN040
     FM280300 06005KT P6SM FEW060
     FM280900 06003KT P6SM SCT150=

USA.gov is the U.S. government's official web portal to all federal, state and local government web resources and services.